Celina, Tennessee
Current Conditions -  °F | °C
As of 5:15 PM on Thursday 27 Nov 2014 (Local Time) from KSRB Reporting Station
Broken Clouds Broken Clouds  
Wind Chill: 24°   Ceiling: 2700
Heat Index: 30°   Visibility: 10mi
Dew Point: 25°   Wind: 6mph
Humidity: 80%   Direction: 340°NNW
Pressure: 30.39"   Gusts: NA
Location:  36.55°N, 85.51°W
Report Text: KSRB 272315Z AUTO 34005KT 10SM BKN027 M01/M04 A3039 RMK
Loading
Personal Weather Stations






























Interactive Weather Map New forecast layout! Learn more

10-Day Weather Forecast

Advertisements
Track Severe Weather on mobile